Time;durP1;ratioP1;P1;durP2;ratioP2;P2;SDS_P1;SDS_P2;PMS_P1;PMS_P2;Temp;Humidity;BMP_temperature;BMP_pressure;BME280_temperature;BME280_humidity;BME280_pressure;Samples;Min_cycle;Max_cycle;Signal;HPM_P1;HPM_P2
2021/12/16 00:08:57;;;;;;;;;;;;;;;;;;5073903;28;19923;-83
2021/12/16 00:35:39;;;;;;;;;;;;;;;;;;5046345;28;19916;-82
2021/12/16 00:38:04;;;;;;;;;;;;;;;;;;5075911;28;19969;-86
2021/12/16 00:40:30;;;;;;;;;;;;;;;;;;5077368;28;19916;-85
2021/12/16 00:43:01;;;;;;;;;;;;;;;;;;5077697;28;19926;-82
2021/12/16 00:45:40;;;;;;;;;;;;;;;;;;5077317;28;20490;-86
2021/12/16 00:55:57;;;;;;;;;;;;;;;;;;5077235;28;19966;-85
2021/12/16 00:58:27;;;;;;;;;;;;;;;;;;5077099;28;19920;-84
2021/12/16 01:01:26;;;;;;;;;;;;;;;;;;5077074;28;19923;-84
2021/12/16 01:04:09;;;;;;;;;;;;;;;;;;5076313;28;19916;-86
2021/12/16 01:34:04;;;;;;;;;;;;;;;;;;5076582;28;19924;-80
2021/12/16 01:37:33;;;;;;;;;;;;;;;;;;5076444;28;20319;-82
2021/12/16 01:42:26;;;;;;;;;;;;;;;;;;5056337;28;19982;-85
2021/12/16 01:46:06;;;;;;;;;;;;;;;;;;5056140;28;20372;-83
2021/12/16 01:50:40;;;;;;;;;;;;;;;;;;5026990;28;19913;-82
2021/12/16 01:53:19;;;;;;;;;;;;;;;;;;5056121;28;20029;-83
2021/12/16 01:55:54;;;;;;;;;;;;;;;;;;5056220;28;19917;-85
2021/12/16 01:58:23;;;;;;;;;;;;;;;;;;5056017;28;19966;-86
2021/12/16 02:01:11;;;;;;;;;;;;;;;;;;5056127;28;19916;-85
2021/12/16 02:03:42;;;;;;;;;;;;;;;;;;5056145;28;19966;-84
2021/12/16 02:06:26;;;;;;;;;;;;;;;;;;5055927;28;19917;-82
2021/12/16 02:08:52;;;;;;;;;;;;;;;;;;5055983;28;19916;-83
2021/12/16 02:11:40;;;;;;;;;;;;;;;;;;5037805;28;19917;-82
2021/12/16 02:35:35;;;;;;;;;;;;;;;;;;5055449;28;19923;-81
2021/12/16 02:38:04;;;;;;;;;;;;;;;;;;5055380;28;20296;-81
2021/12/16 02:40:30;;;;;;;;;;;;;;;;;;5057115;28;20545;-81
2021/12/16 02:50:50;;;;;;;;;;;;;;;;;;5075596;28;20470;-80
2021/12/16 02:53:16;;;;;;;;;;;;;;;;;;5074928;28;19955;-80
2021/12/16 02:55:41;;;;;;;;;;;;;;;;;;5074926;28;19923;-85
2021/12/16 02:58:07;;;;;;;;;;;;;;;;;;5074972;28;19930;-84
2021/12/16 03:00:37;;;;;;;;;;;;;;;;;;5074720;28;19935;-83
2021/12/16 03:03:03;;;;;;;;;;;;;;;;;;5056900;28;19927;-84
2021/12/16 03:05:28;;;;;;;;;;;;;;;;;;5074738;28;20007;-84
2021/12/16 03:07:54;;;;;;;;;;;;;;;;;;5057162;28;19916;-82
2021/12/16 03:13:05;;;;;;;;;;;;;;;;;;5074791;28;19923;-86
2021/12/16 03:15:52;;;;;;;;;;;;;;;;;;5074819;28;20331;-87
2021/12/16 03:21:05;;;;;;;;;;;;;;;;;;5074277;28;19924;-86
2021/12/16 03:23:44;;;;;;;;;;;;;;;;;;5074594;28;19916;-87
2021/12/16 03:30:12;;;;;;;;;;;;;;;;;;5074550;28;19962;-82
2021/12/16 03:32:04;;;;;;;;;;;;;;;;;;5060824;28;19922;-85
2021/12/16 03:37:17;;;;;;;;;;;;;;;;;;5074237;28;20403;-85
2021/12/16 03:39:56;;;;;;;;;;;;;;;;;;5074075;28;20007;-86
2021/12/16 03:42:34;;;;;;;;;;;;;;;;;;5074011;28;19916;-80
2021/12/16 03:45:06;;;;;;;;;;;;;;;;;;5074131;28;19916;-80
2021/12/16 03:47:57;;;;;;;;;;;;;;;;;;5074218;28;20010;-80
2021/12/16 03:50:23;;;;;;;;;;;;;;;;;;5068875;28;20352;-85
2021/12/16 03:52:49;;;;;;;;;;;;;;;;;;5074364;28;19923;-82
2021/12/16 03:55:15;;;;;;;;;;;;;;;;;;5074071;28;20010;-84
2021/12/16 03:57:41;;;;;;;;;;;;;;;;;;5055957;28;19917;-85
2021/12/16 04:00:13;;;;;;;;;;;;;;;;;;5073911;28;19912;-83
2021/12/16 04:02:38;;;;;;;;;;;;;;;;;;5055852;28;20396;-84
2021/12/16 04:05:05;;;;;;;;;;;;;;;;;;5073698;28;19942;-82
2021/12/16 04:07:31;;;;;;;;;;;;;;;;;;5073771;28;19917;-85
2021/12/16 04:09:57;;;;;;;;;;;;;;;;;;5073647;28;19913;-85
2021/12/16 04:12:24;;;;;;;;;;;;;;;;;;5073122;28;19928;-83
2021/12/16 04:14:51;;;;;;;;;;;;;;;;;;5055651;28;19923;-84
2021/12/16 04:17:19;;;;;;;;;;;;;;;;;;5073658;28;19962;-83
2021/12/16 04:19:44;;;;;;;;;;;;;;;;;;5073405;28;20376;-85
2021/12/16 04:22:15;;;;;;;;;;;;;;;;;;5073657;28;19926;-84
2021/12/16 04:24:41;;;;;;;;;;;;;;;;;;5073491;28;19962;-83
2021/12/16 04:27:07;;;;;;;;;;;;;;;;;;5073588;28;19921;-84
2021/12/16 04:29:33;;;;;;;;;;;;;;;;;;5073329;28;20471;-84
2021/12/16 04:31:59;;;;;;;;;;;;;;;;;;5070425;28;20029;-84
2021/12/16 04:34:25;;;;;;;;;;;;;;;;;;5073288;28;19916;-83
2021/12/16 04:36:51;;;;;;;;;;;;;;;;;;5073420;28;20402;-82
2021/12/16 04:39:18;;;;;;;;;;;;;;;;;;5073316;28;19962;-81
2021/12/16 04:41:44;;;;;;;;;;;;;;;;;;5055396;28;19958;-82
2021/12/16 04:44:11;;;;;;;;;;;;;;;;;;5073482;28;19962;-82
2021/12/16 04:46:37;;;;;;;;;;;;;;;;;;5055250;28;20280;-82
2021/12/16 04:49:03;;;;;;;;;;;;;;;;;;5055404;28;19921;-81
2021/12/16 04:51:30;;;;;;;;;;;;;;;;;;5073408;28;20296;-82
2021/12/16 04:53:56;;;;;;;;;;;;;;;;;;5055289;28;19927;-85
2021/12/16 04:56:21;;;;;;;;;;;;;;;;;;5073197;28;19917;-81
2021/12/16 04:58:48;;;;;;;;;;;;;;;;;;5068188;28;19923;-81
2021/12/16 05:01:14;;;;;;;;;;;;;;;;;;5068355;28;19955;-80
2021/12/16 05:03:39;;;;;;;;;;;;;;;;;;5073239;28;19962;-80
2021/12/16 05:06:06;;;;;;;;;;;;;;;;;;5055110;28;20328;-83
2021/12/16 05:08:31;;;;;;;;;;;;;;;;;;5073109;28;20384;-85
2021/12/16 05:11:00;;;;;;;;;;;;;;;;;;5067544;28;19912;-81
2021/12/16 05:13:27;;;;;;;;;;;;;;;;;;5053287;28;19920;-81
2021/12/16 05:15:53;;;;;;;;;;;;;;;;;;5070564;28;19917;-82
2021/12/16 05:18:24;;;;;;;;;;;;;;;;;;5073084;28;19924;-86
2021/12/16 05:20:51;;;;;;;;;;;;;;;;;;5072816;28;19927;-79
2021/12/16 05:28:39;;;;;;;;;;;;;;;;;;5076767;28;20007;-81
2021/12/16 05:31:05;;;;;;;;;;;;;;;;;;5076644;28;19917;-80
2021/12/16 05:33:31;;;;;;;;;;;;;;;;;;5076613;28;19962;-81
2021/12/16 05:35:57;;;;;;;;;;;;;;;;;;5075960;28;19917;-87
2021/12/16 05:38:23;;;;;;;;;;;;;;;;;;5078782;28;19927;-85
2021/12/16 05:40:49;;;;;;;;;;;;;;;;;;5076576;28;19916;-78
2021/12/16 05:43:15;;;;;;;;;;;;;;;;;;5076542;28;20276;-82
2021/12/16 05:45:42;;;;;;;;;;;;;;;;;;5058385;28;20380;-79
2021/12/16 05:48:09;;;;;;;;;;;;;;;;;;5076624;28;20474;-80
2021/12/16 05:50:36;;;;;;;;;;;;;;;;;;5077324;28;20284;-80
2021/12/16 05:53:01;;;;;;;;;;;;;;;;;;5076477;28;19916;-82
2021/12/16 05:55:27;;;;;;;;;;;;;;;;;;5076159;28;19923;-83
2021/12/16 05:57:53;;;;;;;;;;;;;;;;;;5076047;28;19935;-84
2021/12/16 06:00:20;;;;;;;;;;;;;;;;;;5075854;28;19916;-80
2021/12/16 06:02:46;;;;;;;;;;;;;;;;;;5076199;28;19917;-82
2021/12/16 06:05:12;;;;;;;;;;;;;;;;;;5075944;28;19969;-83
2021/12/16 06:07:37;;;;;;;;;;;;;;;;;;5075892;28;19924;-81
2021/12/16 06:10:04;;;;;;;;;;;;;;;;;;5075958;28;19971;-82
2021/12/16 06:12:29;;;;;;;;;;;;;;;;;;5075721;28;19923;-81
2021/12/16 06:15:14;;;;;;;;;;;;;;;;;;5075773;28;20401;-84
2021/12/16 06:28:26;;;;;;;;;;;;;;;;;;5075670;28;20422;-83
2021/12/16 06:30:51;;;;;;;;;;;;;;;;;;5075462;28;19920;-82
2021/12/16 06:33:18;;;;;;;;;;;;;;;;;;5075545;28;20361;-80
2021/12/16 06:35:44;;;;;;;;;;;;;;;;;;5075217;28;20003;-79
2021/12/16 06:38:10;;;;;;;;;;;;;;;;;;5075392;28;19962;-80
2021/12/16 06:40:35;;;;;;;;;;;;;;;;;;5075071;28;19913;-82
2021/12/16 06:43:02;;;;;;;;;;;;;;;;;;5075347;28;19961;-81
2021/12/16 06:45:32;;;;;;;;;;;;;;;;;;5075536;28;19916;-91
2021/12/16 06:48:03;;;;;;;;;;;;;;;;;;5075543;28;19924;-77
2021/12/16 06:50:51;;;;;;;;;;;;;;;;;;5075679;28;19916;-86
2021/12/16 06:53:25;;;;;;;;;;;;;;;;;;5075281;28;19924;-80
2021/12/16 06:56:01;;;;;;;;;;;;;;;;;;5075106;28;19923;-85
2021/12/16 07:01:03;;;;;;;;;;;;;;;;;;5074734;28;20082;-81
2021/12/16 07:03:39;;;;;;;;;;;;;;;;;;5057015;28;20005;-85
2021/12/16 07:06:05;;;;;;;;;;;;;;;;;;5074768;28;19916;-82
2021/12/16 07:08:30;;;;;;;;;;;;;;;;;;5074618;28;19921;-88
2021/12/16 07:10:57;;;;;;;;;;;;;;;;;;5074728;28;19917;-86
2021/12/16 07:13:37;;;;;;;;;;;;;;;;;;5074746;28;19916;-78
2021/12/16 07:16:04;;;;;;;;;;;;;;;;;;5074646;28;19923;-85
2021/12/16 07:18:30;;;;;;;;;;;;;;;;;;5074496;28;19913;-79
2021/12/16 07:20:55;;;;;;;;;;;;;;;;;;5074207;28;20011;-78
2021/12/16 07:23:21;;;;;;;;;;;;;;;;;;5074436;28;20383;-86
2021/12/16 07:25:47;;;;;;;;;;;;;;;;;;5056354;28;20426;-85
2021/12/16 07:28:12;;;;;;;;;;;;;;;;;;5056418;28;19920;-83
2021/12/16 07:30:39;;;;;;;;;;;;;;;;;;5074212;28;19916;-84
2021/12/16 07:33:05;;;;;;;;;;;;;;;;;;5074277;28;19924;-78
2021/12/16 07:35:31;;;;;;;;;;;;;;;;;;5074255;28;19917;-84
2021/12/16 07:37:56;;;;;;;;;;;;;;;;;;5074133;28;19917;-79
2021/12/16 07:40:25;;;;;;;;;;;;;;;;;;5073833;28;19916;-78
2021/12/16 07:43:18;;;;;;;;;;;;;;;;;;5073950;28;20015;-79
2021/12/16 07:45:46;;;;;;;;;;;;;;;;;;5056089;28;20253;-89
2021/12/16 07:48:13;;;;;;;;;;;;;;;;;;5073510;28;19916;-83
2021/12/16 07:50:40;;;;;;;;;;;;;;;;;;5057493;28;20372;-89
2021/12/16 07:53:06;;;;;;;;;;;;;;;;;;5056164;28;20257;-91
2021/12/16 07:55:32;;;;;;;;;;;;;;;;;;5074373;28;19924;-86
2021/12/16 07:57:57;;;;;;;;;;;;;;;;;;5073968;28;20411;-82
2021/12/16 08:00:25;;;;;;;;;;;;;;;;;;5073974;28;19921;-79
2021/12/16 08:02:51;;;;;;;;;;;;;;;;;;5074277;28;19935;-84
2021/12/16 08:05:18;;;;;;;;;;;;;;;;;;5064437;28;20011;-81
2021/12/16 08:07:43;;;;;;;;;;;;;;;;;;5053814;28;19964;-88
2021/12/16 08:10:13;;;;;;;;;;;;;;;;;;5053720;28;20353;-82
2021/12/16 08:12:38;;;;;;;;;;;;;;;;;;5053699;28;19971;-84
2021/12/16 08:15:04;;;;;;;;;;;;;;;;;;5035828;28;20392;-84
2021/12/16 08:17:32;;;;;;;;;;;;;;;;;;5035331;28;21305;-81
2021/12/16 08:19:58;;;;;;;;;;;;;;;;;;5035566;28;19921;-82
2021/12/16 08:22:24;;;;;;;;;;;;;;;;;;5053461;28;20274;-88
2021/12/16 08:24:49;;;;;;;;;;;;;;;;;;5035680;28;19920;-78
2021/12/16 08:27:15;;;;;;;;;;;;;;;;;;5053747;28;20341;-78
2021/12/16 08:29:41;;;;;;;;;;;;;;;;;;5053606;28;19917;-82
2021/12/16 08:32:07;;;;;;;;;;;;;;;;;;5053983;28;19921;-91
2021/12/16 08:34:34;;;;;;;;;;;;;;;;;;5054588;28;20015;-89
2021/12/16 08:37:02;;;;;;;;;;;;;;;;;;5055092;28;20004;-80
2021/12/16 08:39:27;;;;;;;;;;;;;;;;;;5053480;28;19923;-82
2021/12/16 08:41:55;;;;;;;;;;;;;;;;;;5054568;28;19920;-82
2021/12/16 08:44:21;;;;;;;;;;;;;;;;;;5055389;28;19917;-82
2021/12/16 08:47:07;;;;;;;;;;;;;;;;;;5053675;28;19916;-80
2021/12/16 08:49:45;;;;;;;;;;;;;;;;;;5053403;28;20281;-88
2021/12/16 08:52:13;;;;;;;;;;;;;;;;;;5045772;28;19916;-84
2021/12/16 08:54:39;;;;;;;;;;;;;;;;;;5054664;28;19921;-81
2021/12/16 08:57:05;;;;;;;;;;;;;;;;;;5058351;28;19927;-85
2021/12/16 08:59:31;;;;;;;;;;;;;;;;;;5063038;28;19992;-80
2021/12/16 09:01:57;;;;;;;;;;;;;;;;;;5077148;28;19920;-83
2021/12/16 09:04:23;;;;;;;;;;;;;;;;;;5069381;28;20007;-81
2021/12/16 09:06:50;;;;;;;;;;;;;;;;;;5056904;28;19916;-83
2021/12/16 09:09:15;;;;;;;;;;;;;;;;;;5072431;28;19916;-80
2021/12/16 09:11:58;;;;;;;;;;;;;;;;;;5057055;28;20278;-79
2021/12/16 09:14:24;;;;;;;;;;;;;;;;;;5056887;28;19940;-86
2021/12/16 09:16:50;;;;;;;;;;;;;;;;;;5048602;28;19916;-83
2021/12/16 09:19:15;;;;;;;;;;;;;;;;;;5077130;28;20425;-85
2021/12/16 09:21:41;;;;;;;;;;;;;;;;;;5076540;28;19921;-78
2021/12/16 09:24:07;;;;;;;;;;;;;;;;;;5076732;28;19947;-78
2021/12/16 09:26:33;;;;;;;;;;;;;;;;;;5076463;28;20362;-78
2021/12/16 09:28:58;;;;;;;;;;;;;;;;;;5076712;28;20007;-77
2021/12/16 09:31:25;;;;;;;;;;;;;;;;;;5076661;28;19912;-89
2021/12/16 09:33:52;;;;;;;;;;;;;;;;;;5076548;28;19923;-83
2021/12/16 09:36:19;;;;;;;;;;;;;;;;;;5076376;28;19912;-83
2021/12/16 09:38:45;;;;;;;;;;;;;;;;;;5076649;28;20330;-78
2021/12/16 09:41:11;;;;;;;;;;;;;;;;;;5058305;28;19966;-85
2021/12/16 09:43:40;;;;;;;;;;;;;;;;;;5076532;28;19916;-77
2021/12/16 09:46:07;;;;;;;;;;;;;;;;;;5058727;28;19916;-83
2021/12/16 09:48:35;;;;;;;;;;;;;;;;;;5076907;28;19985;-88
2021/12/16 09:51:01;;;;;;;;;;;;;;;;;;5076296;28;19968;-80
2021/12/16 09:53:26;;;;;;;;;;;;;;;;;;5076107;28;19952;-84
2021/12/16 09:55:58;;;;;;;;;;;;;;;;;;5076181;28;20360;-86
2021/12/16 09:58:24;;;;;;;;;;;;;;;;;;5058962;28;19923;-78
2021/12/16 10:00:50;;;;;;;;;;;;;;;;;;5077428;28;20070;-80
2021/12/16 10:03:15;;;;;;;;;;;;;;;;;;5081351;28;19940;-79
2021/12/16 10:05:41;;;;;;;;;;;;;;;;;;5088811;28;19920;-79
2021/12/16 10:08:09;;;;;;;;;;;;;;;;;;5076111;28;19923;-82
2021/12/16 10:10:34;;;;;;;;;;;;;;;;;;5075121;28;19920;-83
2021/12/16 10:13:02;;;;;;;;;;;;;;;;;;5075944;28;19924;-80
2021/12/16 10:17:58;;;;;;;;;;;;;;;;;;5076153;28;20360;-83
2021/12/16 10:20:26;;;;;;;;;;;;;;;;;;5075388;28;19975;-86
2021/12/16 10:23:00;;;;;;;;;;;;;;;;;;5075660;28;19920;-80
2021/12/16 10:25:29;;;;;;;;;;;;;;;;;;5075316;28;19920;-81
2021/12/16 10:28:01;;;;;;;;;;;;;;;;;;5075166;28;19916;-82
2021/12/16 10:30:35;;;;;;;;;;;;;;;;;;5075468;28;20027;-85
2021/12/16 10:33:08;;;;;;;;;;;;;;;;;;5075765;28;19942;-79
2021/12/16 10:35:34;;;;;;;;;;;;;;;;;;5076471;28;19999;-85
2021/12/16 10:38:02;;;;;;;;;;;;;;;;;;5057413;28;20003;-82
2021/12/16 10:40:36;;;;;;;;;;;;;;;;;;5057236;28;19912;-82
2021/12/16 10:43:07;;;;;;;;;;;;;;;;;;5075167;28;20025;-81
2021/12/16 10:45:38;;;;;;;;;;;;;;;;;;5075218;28;19922;-80
2021/12/16 10:48:07;;;;;;;;;;;;;;;;;;5075170;28;19925;-80
2021/12/16 10:50:54;;;;;;;;;;;;;;;;;;5075070;28;19963;-83
2021/12/16 10:53:39;;;;;;;;;;;;;;;;;;5057059;28;19916;-83
2021/12/16 10:56:05;;;;;;;;;;;;;;;;;;5044018;28;19916;-87
2021/12/16 10:58:47;;;;;;;;;;;;;;;;;;5077533;28;19923;-88
2021/12/16 11:01:34;;;;;;;;;;;;;;;;;;5076114;28;19920;-76
2021/12/16 11:04:00;;;;;;;;;;;;;;;;;;5078961;28;20011;-85
2021/12/16 11:06:33;;;;;;;;;;;;;;;;;;5074924;28;19916;-80
2021/12/16 11:09:17;;;;;;;;;;;;;;;;;;5074785;28;19917;-80
2021/12/16 11:11:42;;;;;;;;;;;;;;;;;;5074888;28;19916;-87
2021/12/16 11:14:08;;;;;;;;;;;;;;;;;;5074613;28;20296;-85
2021/12/16 11:16:35;;;;;;;;;;;;;;;;;;5074533;28;20019;-87
2021/12/16 11:19:00;;;;;;;;;;;;;;;;;;5074521;28;20007;-86
2021/12/16 11:21:39;;;;;;;;;;;;;;;;;;5055586;28;20465;-83
2021/12/16 11:24:21;;;;;;;;;;;;;;;;;;5074344;28;19924;-83
2021/12/16 11:26:47;;;;;;;;;;;;;;;;;;5074445;28;20467;-90
2021/12/16 11:29:13;;;;;;;;;;;;;;;;;;5074627;28;19963;-82
2021/12/16 11:31:39;;;;;;;;;;;;;;;;;;5074186;28;19955;-83
2021/12/16 11:34:07;;;;;;;;;;;;;;;;;;5074194;28;19962;-84
2021/12/16 11:36:34;;;;;;;;;;;;;;;;;;5074075;28;20355;-82
2021/12/16 11:39:20;;;;;;;;;;;;;;;;;;5056318;28;19924;-83
2021/12/16 11:41:50;;;;;;;;;;;;;;;;;;5073437;28;19917;-83
2021/12/16 11:44:17;;;;;;;;;;;;;;;;;;5056021;28;19920;-80
2021/12/16 11:46:55;;;;;;;;;;;;;;;;;;5074025;28;19920;-84
2021/12/16 11:49:26;;;;;;;;;;;;;;;;;;5074205;28;20016;-78
2021/12/16 11:51:57;;;;;;;;;;;;;;;;;;5074087;28;19913;-84
2021/12/16 11:54:28;;;;;;;;;;;;;;;;;;5073622;28;19951;-79
2021/12/16 11:56:57;;;;;;;;;;;;;;;;;;5074580;28;19914;-86
2021/12/16 11:59:28;;;;;;;;;;;;;;;;;;5073852;28;20007;-78
2021/12/16 12:01:54;;;;;;;;;;;;;;;;;;5073984;28;19923;-83
2021/12/16 12:04:24;;;;;;;;;;;;;;;;;;5073655;28;19916;-77
2021/12/16 12:06:49;;;;;;;;;;;;;;;;;;5073728;28;19924;-82
2021/12/16 12:09:15;;;;;;;;;;;;;;;;;;5073923;28;20360;-77
2021/12/16 12:11:43;;;;;;;;;;;;;;;;;;5074031;28;19916;-81
2021/12/16 12:14:10;;;;;;;;;;;;;;;;;;5055619;28;19917;-83
2021/12/16 12:16:43;;;;;;;;;;;;;;;;;;5073734;28;20394;-83
2021/12/16 12:19:12;;;;;;;;;;;;;;;;;;5073760;28;20387;-83
2021/12/16 12:21:50;;;;;;;;;;;;;;;;;;5073510;28;19959;-81
2021/12/16 12:24:17;;;;;;;;;;;;;;;;;;5055421;28;20364;-79
2021/12/16 12:26:44;;;;;;;;;;;;;;;;;;5073796;28;19921;-84
2021/12/16 12:29:42;;;;;;;;;;;;;;;;;;5074418;28;19923;-85
2021/12/16 12:32:08;;;;;;;;;;;;;;;;;;5040301;28;19917;-90
2021/12/16 12:34:34;;;;;;;;;;;;;;;;;;5076938;28;20031;-87
2021/12/16 12:37:04;;;;;;;;;;;;;;;;;;5063494;28;20288;-91
2021/12/16 12:39:36;;;;;;;;;;;;;;;;;;5079793;28;19920;-84
2021/12/16 12:42:01;;;;;;;;;;;;;;;;;;5057879;28;19917;-92
2021/12/16 12:44:27;;;;;;;;;;;;;;;;;;5039426;28;19916;-86
2021/12/16 12:46:53;;;;;;;;;;;;;;;;;;5039654;28;19920;-79
2021/12/16 12:49:25;;;;;;;;;;;;;;;;;;5061224;28;19924;-80
2021/12/16 12:51:52;;;;;;;;;;;;;;;;;;5057691;28;19974;-80
2021/12/16 12:54:20;;;;;;;;;;;;;;;;;;5074311;28;19916;-78
2021/12/16 12:56:46;;;;;;;;;;;;;;;;;;5060969;28;19913;-78
2021/12/16 12:59:12;;;;;;;;;;;;;;;;;;5077343;28;19917;-84
2021/12/16 13:01:38;;;;;;;;;;;;;;;;;;5077580;28;19998;-79
2021/12/16 13:04:08;;;;;;;;;;;;;;;;;;5077015;28;19958;-79
2021/12/16 13:06:46;;;;;;;;;;;;;;;;;;5076861;28;20324;-85
2021/12/16 13:09:22;;;;;;;;;;;;;;;;;;5077258;28;19916;-83
2021/12/16 13:11:48;;;;;;;;;;;;;;;;;;5076731;28;19970;-82
2021/12/16 13:14:29;;;;;;;;;;;;;;;;;;5080361;28;19921;-83
2021/12/16 13:28:20;;;;;;;;;;;;;;;;;;5076094;28;19924;-81
2021/12/16 13:30:58;;;;;;;;;;;;;;;;;;5076395;28;19923;-81
2021/12/16 13:33:35;;;;;;;;;;;;;;;;;;5077168;28;19987;-80
2021/12/16 13:36:14;;;;;;;;;;;;;;;;;;5058689;28;20492;-82
2021/12/16 13:38:42;;;;;;;;;;;;;;;;;;5076671;28;19917;-89
2021/12/16 13:41:30;;;;;;;;;;;;;;;;;;5077964;28;19924;-82
2021/12/16 13:43:59;;;;;;;;;;;;;;;;;;5076224;28;20001;-83
2021/12/16 13:46:44;;;;;;;;;;;;;;;;;;5075299;28;19959;-87
2021/12/16 13:58:16;;;;;;;;;;;;;;;;;;5076467;28;20018;-81
2021/12/16 14:03:51;;;;;;;;;;;;;;;;;;5057485;28;19974;-79
2021/12/16 14:06:32;;;;;;;;;;;;;;;;;;5038206;28;19920;-80
2021/12/16 14:09:11;;;;;;;;;;;;;;;;;;5056271;28;19928;-79
2021/12/16 14:14:41;;;;;;;;;;;;;;;;;;5055714;28;20283;-79
2021/12/16 14:17:12;;;;;;;;;;;;;;;;;;5055489;28;19917;-80
2021/12/16 14:25:34;;;;;;;;;;;;;;;;;;5060271;28;20433;-84
2021/12/16 14:41:49;;;;;;;;;;;;;;;;;;5068004;28;19916;-85
2021/12/16 14:48:02;;;;;;;;;;;;;;;;;;5055079;28;19924;-78
2021/12/16 14:49:49;;;;;;;;;;;;;;;;;;5046409;28;19964;-83
2021/12/16 14:52:19;;;;;;;;;;;;;;;;;;5058396;28;20372;-84
2021/12/16 14:54:46;;;;;;;;;;;;;;;;;;5062390;28;19924;-81
2021/12/16 14:57:12;;;;;;;;;;;;;;;;;;5060886;28;19974;-81
2021/12/16 14:59:37;;;;;;;;;;;;;;;;;;5062917;28;19913;-79
2021/12/16 15:02:03;;;;;;;;;;;;;;;;;;5056914;28;19978;-80
2021/12/16 15:04:30;;;;;;;;;;;;;;;;;;5059163;28;19928;-82
2021/12/16 15:07:01;;;;;;;;;;;;;;;;;;5057591;28;19935;-80
2021/12/16 15:09:30;;;;;;;;;;;;;;;;;;5058700;28;20342;-83
2021/12/16 15:12:05;;;;;;;;;;;;;;;;;;5058996;28;20416;-81
2021/12/16 15:31:51;;;;;;;;;;;;;;;;;;5059210;28;19931;-84
2021/12/16 15:37:03;;;;;;;;;;;;;;;;;;5062690;28;19928;-84
2021/12/16 15:44:45;;;;;;;;;;;;;;;;;;5060520;28;19975;-85
2021/12/16 15:47:11;;;;;;;;;;;;;;;;;;5060508;28;19928;-87
2021/12/16 15:49:36;;;;;;;;;;;;;;;;;;5049153;28;19920;-83
2021/12/16 15:52:02;;;;;;;;;;;;;;;;;;5053781;28;19924;-88
2021/12/16 15:54:32;;;;;;;;;;;;;;;;;;5061007;28;19973;-86
2021/12/16 15:56:58;;;;;;;;;;;;;;;;;;5058564;28;19964;-87
2021/12/16 15:59:28;;;;;;;;;;;;;;;;;;5058842;28;19994;-88
2021/12/16 16:01:54;;;;;;;;;;;;;;;;;;5060282;28;19970;-80
2021/12/16 16:04:21;;;;;;;;;;;;;;;;;;5053770;28;19916;-83
2021/12/16 16:06:48;;;;;;;;;;;;;;;;;;5046512;28;19927;-86
2021/12/16 16:09:15;;;;;;;;;;;;;;;;;;5068618;28;20265;-82
2021/12/16 16:11:46;;;;;;;;;;;;;;;;;;5054584;28;19924;-84
2021/12/16 16:14:12;;;;;;;;;;;;;;;;;;5061385;28;19944;-90
2021/12/16 16:16:45;;;;;;;;;;;;;;;;;;5063326;28;20414;-84
2021/12/16 16:19:13;;;;;;;;;;;;;;;;;;5058151;28;19931;-80
2021/12/16 16:21:40;;;;;;;;;;;;;;;;;;5037650;28;20290;-82
2021/12/16 16:24:08;;;;;;;;;;;;;;;;;;5038184;28;19932;-84
2021/12/16 16:26:33;;;;;;;;;;;;;;;;;;5037653;28;19929;-86
2021/12/16 16:29:01;;;;;;;;;;;;;;;;;;5039017;28;19925;-81
2021/12/16 16:31:27;;;;;;;;;;;;;;;;;;5039204;28;19956;-83
2021/12/16 16:33:53;;;;;;;;;;;;;;;;;;5037978;28;19925;-81
2021/12/16 16:36:20;;;;;;;;;;;;;;;;;;5038535;28;20866;-81
2021/12/16 16:39:04;;;;;;;;;;;;;;;;;;5041219;28;20384;-86
2021/12/16 16:41:31;;;;;;;;;;;;;;;;;;5034436;28;19929;-81
2021/12/16 16:44:01;;;;;;;;;;;;;;;;;;5033556;28;19918;-84
2021/12/16 16:46:38;;;;;;;;;;;;;;;;;;5045640;28;19916;-82
2021/12/16 16:49:07;;;;;;;;;;;;;;;;;;5053390;28;19920;-79
2021/12/16 16:51:34;;;;;;;;;;;;;;;;;;5053873;28;20324;-86
2021/12/16 16:54:10;;;;;;;;;;;;;;;;;;5051919;28;20399;-90
2021/12/16 16:56:50;;;;;;;;;;;;;;;;;;5053330;28;19916;-82
2021/12/16 16:59:18;;;;;;;;;;;;;;;;;;5035772;28;19917;-83
2021/12/16 17:01:44;;;;;;;;;;;;;;;;;;5033946;28;19967;-89
2021/12/16 17:04:12;;;;;;;;;;;;;;;;;;5033800;28;19928;-84
2021/12/16 17:06:40;;;;;;;;;;;;;;;;;;5045113;28;19975;-81
2021/12/16 17:09:07;;;;;;;;;;;;;;;;;;5033724;28;20365;-88
2021/12/16 17:11:33;;;;;;;;;;;;;;;;;;5033812;28;19970;-86
2021/12/16 17:14:11;;;;;;;;;;;;;;;;;;5033171;28;19921;-82
2021/12/16 17:19:26;;;;;;;;;;;;;;;;;;5034522;28;19962;-84
2021/12/16 17:21:52;;;;;;;;;;;;;;;;;;5056427;28;19921;-86
2021/12/16 17:24:19;;;;;;;;;;;;;;;;;;5056864;28;20380;-82
2021/12/16 17:26:48;;;;;;;;;;;;;;;;;;5044157;28;20324;-85
2021/12/16 17:29:19;;;;;;;;;;;;;;;;;;5046974;28;20020;-89
2021/12/16 17:31:47;;;;;;;;;;;;;;;;;;5064338;28;20291;-86
2021/12/16 17:34:19;;;;;;;;;;;;;;;;;;5082492;28;19927;-82
2021/12/16 17:36:48;;;;;;;;;;;;;;;;;;5062209;28;20023;-89
2021/12/16 17:39:16;;;;;;;;;;;;;;;;;;5061445;28;19924;-83
2021/12/16 17:41:41;;;;;;;;;;;;;;;;;;5060472;28;19925;-86
2021/12/16 17:44:12;;;;;;;;;;;;;;;;;;5042506;28;19935;-88
2021/12/16 17:46:38;;;;;;;;;;;;;;;;;;5060622;28;19921;-82
2021/12/16 17:49:05;;;;;;;;;;;;;;;;;;5061880;28;21616;-84
2021/12/16 17:51:31;;;;;;;;;;;;;;;;;;5061427;28;20363;-82
2021/12/16 17:54:00;;;;;;;;;;;;;;;;;;5059960;28;19921;-85
2021/12/16 17:56:26;;;;;;;;;;;;;;;;;;5044599;28;19937;-90
2021/12/16 17:58:53;;;;;;;;;;;;;;;;;;5063701;28;19924;-88
2021/12/16 18:01:22;;;;;;;;;;;;;;;;;;5064769;28;19921;-87
2021/12/16 18:03:53;;;;;;;;;;;;;;;;;;5040487;28;20981;-88
2021/12/16 18:06:20;;;;;;;;;;;;;;;;;;5061088;28;19960;-80
2021/12/16 18:08:48;;;;;;;;;;;;;;;;;;5058768;28;19920;-81
2021/12/16 18:11:19;;;;;;;;;;;;;;;;;;5059519;28;19929;-87
2021/12/16 18:13:49;;;;;;;;;;;;;;;;;;5047392;28;19921;-86
2021/12/16 18:16:17;;;;;;;;;;;;;;;;;;5075060;28;19917;-83
2021/12/16 18:18:43;;;;;;;;;;;;;;;;;;5074881;28;19920;-85
2021/12/16 18:21:08;;;;;;;;;;;;;;;;;;5071891;28;19970;-80
2021/12/16 18:23:34;;;;;;;;;;;;;;;;;;5063342;28;19955;-87
2021/12/16 18:26:02;;;;;;;;;;;;;;;;;;5063297;28;19924;-81
2021/12/16 18:28:32;;;;;;;;;;;;;;;;;;5066907;28;19924;-76
2021/12/16 18:31:04;;;;;;;;;;;;;;;;;;5062084;28;19921;-86
2021/12/16 18:33:34;;;;;;;;;;;;;;;;;;5062066;28;20066;-78
2021/12/16 18:36:01;;;;;;;;;;;;;;;;;;5046140;28;20391;-78
2021/12/16 18:38:31;;;;;;;;;;;;;;;;;;5076143;28;19928;-81
2021/12/16 18:41:06;;;;;;;;;;;;;;;;;;5064232;28;19917;-85
2021/12/16 18:43:32;;;;;;;;;;;;;;;;;;5038666;28;19917;-78
2021/12/16 18:46:13;;;;;;;;;;;;;;;;;;5063372;28;19932;-88
2021/12/16 18:48:49;;;;;;;;;;;;;;;;;;5075290;28;19917;-85
2021/12/16 18:51:43;;;;;;;;;;;;;;;;;;5075286;28;19916;-86
2021/12/16 18:54:28;;;;;;;;;;;;;;;;;;5074598;28;19917;-82
2021/12/16 18:57:00;;;;;;;;;;;;;;;;;;5057010;28;19921;-82
2021/12/16 18:59:26;;;;;;;;;;;;;;;;;;5053638;28;19931;-86
2021/12/16 19:01:55;;;;;;;;;;;;;;;;;;5059565;28;19924;-86
2021/12/16 19:04:23;;;;;;;;;;;;;;;;;;5057882;28;19954;-81
2021/12/16 19:06:49;;;;;;;;;;;;;;;;;;5058902;28;20479;-86
2021/12/16 19:09:17;;;;;;;;;;;;;;;;;;5042187;28;20013;-85
2021/12/16 19:11:51;;;;;;;;;;;;;;;;;;5060986;28;19921;-84
2021/12/16 19:14:18;;;;;;;;;;;;;;;;;;5058883;28;19920;-82
2021/12/16 19:16:44;;;;;;;;;;;;;;;;;;5043352;28;19935;-81
2021/12/16 19:19:09;;;;;;;;;;;;;;;;;;5040451;28;19979;-86
2021/12/16 19:21:35;;;;;;;;;;;;;;;;;;5061458;28;20380;-84
2021/12/16 19:24:03;;;;;;;;;;;;;;;;;;5063090;28;19956;-84
2021/12/16 19:26:28;;;;;;;;;;;;;;;;;;5065546;28;19921;-85
2021/12/16 19:28:54;;;;;;;;;;;;;;;;;;5057004;28;19924;-86
2021/12/16 19:31:20;;;;;;;;;;;;;;;;;;5020416;28;21495;-91
2021/12/16 19:33:47;;;;;;;;;;;;;;;;;;5062538;28;20383;-85
2021/12/16 19:36:13;;;;;;;;;;;;;;;;;;5054133;28;19916;-85
2021/12/16 19:38:39;;;;;;;;;;;;;;;;;;5061580;28;19920;-86
2021/12/16 19:41:08;;;;;;;;;;;;;;;;;;5082141;28;19927;-83
2021/12/16 19:43:35;;;;;;;;;;;;;;;;;;5087371;28;20546;-82
2021/12/16 19:46:01;;;;;;;;;;;;;;;;;;5077140;28;19989;-81
2021/12/16 19:48:26;;;;;;;;;;;;;;;;;;5094072;28;19916;-85
2021/12/16 19:50:54;;;;;;;;;;;;;;;;;;5094336;28;20018;-82
2021/12/16 19:53:20;;;;;;;;;;;;;;;;;;5094467;28;20288;-82
2021/12/16 19:55:46;;;;;;;;;;;;;;;;;;5094067;28;19916;-83
2021/12/16 19:58:11;;;;;;;;;;;;;;;;;;5093703;28;19916;-82
2021/12/16 20:00:37;;;;;;;;;;;;;;;;;;5093835;28;19955;-81
2021/12/16 20:03:02;;;;;;;;;;;;;;;;;;5093947;28;19945;-83
2021/12/16 20:05:28;;;;;;;;;;;;;;;;;;5092456;28;20014;-84
2021/12/16 20:07:54;;;;;;;;;;;;;;;;;;5061211;28;19924;-82
2021/12/16 20:10:23;;;;;;;;;;;;;;;;;;5057417;28;19917;-87
2021/12/16 20:12:49;;;;;;;;;;;;;;;;;;5053904;28;19932;-81
2021/12/16 20:15:18;;;;;;;;;;;;;;;;;;5064749;28;19937;-85
2021/12/16 20:17:43;;;;;;;;;;;;;;;;;;5054120;28;19928;-87
2021/12/16 20:20:12;;;;;;;;;;;;;;;;;;5055781;28;19929;-84
2021/12/16 20:22:38;;;;;;;;;;;;;;;;;;5055256;28;19966;-87
2021/12/16 20:25:09;;;;;;;;;;;;;;;;;;5061133;28;19920;-86
2021/12/16 20:27:38;;;;;;;;;;;;;;;;;;5073511;28;19916;-85
2021/12/16 20:30:08;;;;;;;;;;;;;;;;;;5061646;28;19920;-86
2021/12/16 20:32:36;;;;;;;;;;;;;;;;;;5053632;28;20403;-82